createdAt,value
2023-07-08T06:51:02.778Z,1005.06
2023-07-08T06:52:02.400Z,1005.08
2023-07-08T06:53:02.413Z,1005.09
2023-07-08T06:54:02.436Z,1005.13
2023-07-08T06:55:04.781Z,1005.12
2023-07-08T06:56:02.509Z,1005.13
2023-07-08T06:57:02.506Z,1005.16
2023-07-08T06:58:02.568Z,1005.22
2023-07-08T06:59:02.574Z,1005.14
2023-07-08T07:00:02.576Z,1005.12
2023-07-08T07:01:02.862Z,1005.09
2023-07-08T07:02:02.619Z,1005.20
2023-07-08T07:03:02.752Z,1005.18
2023-07-08T07:04:02.791Z,1005.13
2023-07-08T07:05:02.698Z,1005.15
2023-07-08T07:06:02.747Z,1005.15
2023-07-08T07:07:02.796Z,1005.17
2023-07-08T07:08:02.773Z,1005.17
2023-07-08T07:09:02.827Z,1005.14
2023-07-08T07:10:02.817Z,1005.08
2023-07-08T07:11:02.875Z,1005.05
2023-07-08T07:12:02.908Z,1005.06
2023-07-08T07:13:02.946Z,1005.10
2023-07-08T07:14:03.008Z,1005.11
2023-07-08T07:15:02.955Z,1005.09
2023-07-08T07:16:03.421Z,1005.09
2023-07-08T07:17:08.686Z,1005.09
2023-07-08T07:18:03.071Z,1005.07
2023-07-08T07:19:03.076Z,1005.09
2023-07-08T07:20:03.089Z,1005.11
2023-07-08T07:21:03.152Z,1005.16
2023-07-08T07:22:03.147Z,1005.12
2023-07-08T07:23:03.276Z,1005.11
2023-07-08T07:24:03.218Z,1005.02
2023-07-08T07:25:03.276Z,1005.08
2023-07-08T07:26:03.430Z,1005.06
2023-07-08T07:27:03.276Z,1005.08
2023-07-08T07:28:03.310Z,1005.12
2023-07-08T07:29:03.374Z,1005.12
2023-07-08T07:30:03.393Z,1005.06
2023-07-08T07:31:03.417Z,1005.04
2023-07-08T07:32:03.418Z,1005.12
2023-07-08T07:33:03.486Z,1005.12
2023-07-08T07:34:03.481Z,1005.06
2023-07-08T07:35:03.532Z,1005.09
2023-07-08T07:36:03.584Z,1005.09
2023-07-08T07:37:03.592Z,1005.06
2023-07-08T07:38:03.597Z,1005.05
2023-07-08T07:39:03.616Z,1005.07
2023-07-08T07:40:03.731Z,1005.05
2023-07-08T07:41:03.681Z,1005.08
2023-07-08T07:42:03.747Z,1005.09
2023-07-08T07:43:03.728Z,1005.10
2023-07-08T07:44:03.759Z,1005.16
2023-07-08T07:45:03.832Z,1005.16
2023-07-08T07:46:04.017Z,1005.17
2023-07-08T07:47:03.964Z,1005.15
2023-07-08T07:48:03.984Z,1005.16
2023-07-08T07:49:03.914Z,1005.14
2023-07-08T07:50:04.007Z,1005.12
2023-07-08T07:51:03.975Z,1005.08
2023-07-08T07:52:04.004Z,1005.05
2023-07-08T07:53:04.031Z,1005.05
2023-07-08T07:54:04.056Z,1005.07
2023-07-08T07:55:04.114Z,1005.04
2023-07-08T07:56:04.349Z,1005.03
2023-07-08T07:57:04.136Z,1005.08
2023-07-08T07:58:04.167Z,1005.07
2023-07-08T07:59:04.199Z,1005.06
2023-07-08T08:00:04.286Z,1005.06
2023-07-08T08:01:04.283Z,1005.07
2023-07-08T08:02:04.462Z,1005.10
2023-07-08T08:03:04.469Z,1005.12
2023-07-08T08:04:04.371Z,1005.11
2023-07-08T08:05:04.423Z,1005.11
2023-07-08T08:06:04.427Z,1005.13
2023-07-08T08:07:04.453Z,1005.16
2023-07-08T08:08:04.464Z,1005.13
2023-07-08T08:09:04.507Z,1005.12
2023-07-08T08:10:04.521Z,1005.14
2023-07-08T08:11:04.543Z,1005.14
2023-07-08T08:12:04.583Z,1005.11
2023-07-08T08:13:04.607Z,1005.10
2023-07-08T08:14:04.693Z,1005.08
2023-07-08T08:15:04.673Z,1005.10
2023-07-08T08:16:04.958Z,1005.05
2023-07-08T08:17:04.764Z,1005.09
2023-07-08T08:18:04.778Z,1005.08
2023-07-08T08:19:07.940Z,1005.06
2023-07-08T08:20:04.819Z,1005.05
2023-07-08T08:21:04.839Z,1005.11
2023-07-08T08:22:04.869Z,1005.08
2023-07-08T08:23:04.927Z,1005.11
2023-07-08T08:24:04.935Z,1005.07
2023-07-08T08:25:04.958Z,1005.08
2023-07-08T08:26:05.004Z,1005.08
2023-07-08T08:27:05.053Z,1005.11
2023-07-08T08:28:05.054Z,1005.09
2023-07-08T08:29:05.073Z,1005.09
2023-07-08T08:30:05.112Z,1005.08
2023-07-08T08:31:05.150Z,1005.08
2023-07-08T08:32:05.205Z,1005.07
2023-07-08T08:33:05.230Z,1005.07
2023-07-08T08:34:05.269Z,1005.04
2023-07-08T08:35:05.258Z,1005.05
2023-07-08T08:36:05.300Z,1005.10
2023-07-08T08:37:05.322Z,1005.10
2023-07-08T08:38:05.377Z,1005.14
2023-07-08T08:39:05.406Z,1005.11
2023-07-08T08:40:05.418Z,1005.11
2023-07-08T08:41:05.453Z,1005.10
2023-07-08T08:42:05.487Z,1005.10
2023-07-08T08:43:05.570Z,1005.13
2023-07-08T08:44:05.529Z,1005.10
2023-07-08T08:45:05.605Z,1005.09
2023-07-08T08:46:05.649Z,1005.09
2023-07-08T08:47:05.621Z,1005.11
2023-07-08T08:48:05.697Z,1005.13
2023-07-08T08:49:05.726Z,1005.12
2023-07-08T08:50:05.726Z,1005.07
2023-07-08T08:51:05.766Z,1005.05
2023-07-08T08:52:05.805Z,1005.08
2023-07-08T08:53:05.824Z,1005.05
2023-07-08T08:54:05.866Z,1005.01
2023-07-08T08:55:05.903Z,1005.01
2023-07-08T08:56:05.919Z,1005.04
2023-07-08T08:57:05.939Z,1005.04
2023-07-08T08:58:05.988Z,1005.06
2023-07-08T08:59:06.079Z,1005.07
2023-07-08T09:00:06.064Z,1005.10
2023-07-08T09:01:06.131Z,1005.08
2023-07-08T09:02:06.175Z,1005.06
2023-07-08T09:03:06.204Z,1005.10
2023-07-08T09:04:06.169Z,1005.09
2023-07-08T09:05:06.227Z,1005.14
2023-07-08T09:06:06.230Z,1005.10
2023-07-08T09:07:06.243Z,1005.03
2023-07-08T09:08:06.280Z,1005.11
2023-07-08T09:09:06.312Z,1005.02
2023-07-08T09:10:06.432Z,1005.03
2023-07-08T09:11:06.386Z,1005.02
2023-07-08T09:12:06.409Z,1005.07
2023-07-08T09:13:06.443Z,1005.09
2023-07-08T09:14:06.612Z,1005.04
2023-07-08T09:15:06.543Z,1005.05
2023-07-08T09:16:06.550Z,1005.07
2023-07-08T09:17:06.571Z,1005.00
2023-07-08T09:18:06.684Z,1005.01
2023-07-08T09:19:06.672Z,1004.98
2023-07-08T09:20:06.721Z,1005.01
2023-07-08T09:21:06.704Z,1004.99
2023-07-08T09:22:06.773Z,1004.99
2023-07-08T09:23:06.779Z,1005.01
2023-07-08T09:24:06.805Z,1005.04
2023-07-08T09:25:06.867Z,1005.05
2023-07-08T09:26:06.920Z,1005.02
2023-07-08T09:27:06.917Z,1005.04
2023-07-08T09:28:06.952Z,1005.04
2023-07-08T09:29:06.979Z,1005.01
2023-07-08T09:30:07.017Z,1005.04
2023-07-08T09:31:07.106Z,1005.01
2023-07-08T09:32:07.110Z,1005.03
2023-07-08T09:33:07.169Z,1004.97
2023-07-08T09:34:07.174Z,1004.96
2023-07-08T09:35:07.227Z,1004.99
2023-07-08T09:36:07.224Z,1004.99
2023-07-08T09:37:07.264Z,1004.98
2023-07-08T09:38:07.301Z,1005.01
2023-07-08T09:39:07.333Z,1005.00
2023-07-08T09:40:07.379Z,1004.98
2023-07-08T09:41:07.425Z,1005.00
2023-07-08T09:42:07.446Z,1004.95
2023-07-08T09:43:07.496Z,1004.93
2023-07-08T09:44:07.524Z,1004.93
2023-07-08T09:45:07.671Z,1004.91
2023-07-08T09:46:07.634Z,1004.85
2023-07-08T09:47:07.653Z,1004.85
2023-07-08T09:48:07.783Z,1004.83
2023-07-08T09:49:07.732Z,1004.88
2023-07-08T09:50:07.725Z,1004.91
2023-07-08T09:51:07.764Z,1004.92
2023-07-08T09:52:07.818Z,1004.90
2023-07-08T09:53:07.871Z,1004.90
2023-07-08T09:54:07.897Z,1004.91
2023-07-08T09:55:07.911Z,1004.90
2023-07-08T09:56:07.953Z,1004.90
2023-07-08T09:57:07.986Z,1004.88
2023-07-08T09:58:08.073Z,1004.93
2023-07-08T09:59:08.100Z,1004.89
2023-07-08T10:00:08.090Z,1004.87
2023-07-08T10:01:08.154Z,1004.87
2023-07-08T10:02:08.181Z,1004.90
2023-07-08T10:03:08.233Z,1004.91
2023-07-08T10:04:08.312Z,1004.89
2023-07-08T10:05:08.344Z,1004.89
2023-07-08T10:06:08.301Z,1004.91
2023-07-08T10:07:08.341Z,1004.89
2023-07-08T10:08:08.382Z,1004.94
2023-07-08T10:09:08.411Z,1004.97
2023-07-08T10:10:08.514Z,1004.95
2023-07-08T10:11:08.508Z,1004.96
2023-07-08T10:12:08.565Z,1004.97
2023-07-08T10:13:08.554Z,1004.97
2023-07-08T10:14:14.437Z,1004.94
2023-07-08T10:15:08.649Z,1004.96
2023-07-08T10:16:08.700Z,1004.96
2023-07-08T10:17:08.723Z,1004.90
2023-07-08T10:18:08.797Z,1004.89
2023-07-08T10:19:08.773Z,1004.93
2023-07-08T10:20:08.839Z,1004.92
2023-07-08T10:21:08.840Z,1004.94
2023-07-08T10:22:08.875Z,1004.88
2023-07-08T10:23:08.917Z,1004.95
2023-07-08T10:24:08.948Z,1004.89
2023-07-08T10:25:09.029Z,1004.91
2023-07-08T10:26:09.024Z,1004.88
2023-07-08T10:27:09.111Z,1004.89
2023-07-08T10:28:09.150Z,1004.91
2023-07-08T10:29:09.132Z,1004.89
2023-07-08T10:30:09.231Z,1004.92
2023-07-08T10:31:09.230Z,1004.90
2023-07-08T10:32:09.243Z,1004.85
2023-07-08T10:33:09.343Z,1004.85
2023-07-08T10:34:09.338Z,1004.92
2023-07-08T10:35:09.367Z,1004.92
2023-07-08T10:36:09.411Z,1004.94
2023-07-08T10:37:09.429Z,1004.91
2023-07-08T10:38:09.482Z,1004.88
2023-07-08T10:39:09.496Z,1004.89
2023-07-08T10:40:09.566Z,1004.88
2023-07-08T10:41:09.573Z,1004.81
2023-07-08T10:42:09.608Z,1004.83
2023-07-08T10:43:09.658Z,1004.85
2023-07-08T10:44:09.694Z,1004.83
2023-07-08T10:45:09.764Z,1004.86
2023-07-08T10:46:09.794Z,1004.87
2023-07-08T10:47:09.830Z,1004.85
2023-07-08T10:48:09.880Z,1004.85
2023-07-08T10:49:09.871Z,1004.87
2023-07-08T10:50:09.913Z,1004.87
2023-07-08T10:51:09.970Z,1004.89
2023-07-08T10:52:09.997Z,1004.84
2023-07-08T10:53:10.101Z,1004.84
2023-07-08T10:54:10.060Z,1004.81
2023-07-08T10:55:10.103Z,1004.82
2023-07-08T10:56:10.141Z,1004.82
2023-07-08T10:57:10.193Z,1004.87
2023-07-08T10:58:10.260Z,1004.85
2023-07-08T10:59:10.451Z,1004.84
2023-07-08T11:00:10.291Z,1004.85
2023-07-08T11:01:10.346Z,1004.85
2023-07-08T11:02:10.353Z,1004.83
2023-07-08T11:03:10.508Z,1004.85
2023-07-08T11:04:10.576Z,1004.83
2023-07-08T11:05:10.467Z,1004.80
2023-07-08T11:06:10.501Z,1004.79
2023-07-08T11:07:10.542Z,1004.78
2023-07-08T11:08:10.583Z,1004.80
2023-07-08T11:09:10.674Z,1004.76
2023-07-08T11:10:10.662Z,1004.79
2023-07-08T11:11:15.856Z,1004.76
2023-07-08T11:12:10.728Z,1004.77
2023-07-08T11:13:10.757Z,1004.72
2023-07-08T11:14:10.844Z,1004.68
2023-07-08T11:15:10.861Z,1004.71
2023-07-08T11:16:10.922Z,1004.70
2023-07-08T11:17:10.910Z,1004.70
2023-07-08T11:18:10.937Z,1004.72
2023-07-08T11:19:11.488Z,1004.66
2023-07-08T11:20:11.013Z,1004.71
2023-07-08T11:21:11.049Z,1004.75
2023-07-08T11:22:11.084Z,1004.68
2023-07-08T11:23:11.136Z,1004.71
2023-07-08T11:24:11.194Z,1004.70
2023-07-08T11:25:11.219Z,1004.66
2023-07-08T11:26:11.284Z,1004.71
2023-07-08T11:27:11.286Z,1004.65
2023-07-08T11:28:11.531Z,1004.67
2023-07-08T11:29:11.398Z,1004.69
2023-07-08T11:30:11.390Z,1004.64
2023-07-08T11:31:11.486Z,1004.65
2023-07-08T11:32:11.462Z,1004.66
2023-07-08T11:33:11.571Z,1004.61
2023-07-08T11:34:11.542Z,1004.68
2023-07-08T11:35:11.610Z,1004.69
2023-07-08T11:36:11.612Z,1004.65
2023-07-08T11:37:11.722Z,1004.68
2023-07-08T11:38:11.686Z,1004.64
2023-07-08T11:39:11.737Z,1004.62
2023-07-08T11:40:11.771Z,1004.61
2023-07-08T11:41:11.804Z,1004.58
2023-07-08T11:42:11.875Z,1004.55
2023-07-08T11:43:11.882Z,1004.54
2023-07-08T11:44:11.918Z,1004.56
2023-07-08T11:45:11.949Z,1004.51
2023-07-08T11:46:12.038Z,1004.53
2023-07-08T11:47:12.036Z,1004.53
2023-07-08T11:48:12.259Z,1004.49
2023-07-08T11:49:12.106Z,1004.48
2023-07-08T11:50:12.183Z,1004.45
2023-07-08T11:51:12.208Z,1004.50
2023-07-08T11:52:12.214Z,1004.48
2023-07-08T11:53:12.276Z,1004.45
2023-07-08T11:54:12.293Z,1004.38
2023-07-08T11:55:12.328Z,1004.39
2023-07-08T11:56:12.355Z,1004.35
2023-07-08T11:57:12.404Z,1004.36
2023-07-08T11:58:12.456Z,1004.36
2023-07-08T11:59:12.482Z,1004.33
2023-07-08T12:00:12.496Z,1004.34
2023-07-08T12:01:12.590Z,1004.40
2023-07-08T12:02:12.596Z,1004.35
2023-07-08T12:03:12.740Z,1004.33
2023-07-08T12:04:12.640Z,1004.34
2023-07-08T12:05:12.683Z,1004.29
2023-07-08T12:06:12.714Z,1004.31
2023-07-08T12:07:12.785Z,1004.34
2023-07-08T12:08:12.818Z,1004.33
2023-07-08T12:09:14.886Z,1004.31
2023-07-08T12:10:12.864Z,1004.33
2023-07-08T12:11:12.899Z,1004.31
2023-07-08T12:12:12.930Z,1004.34
2023-07-08T12:13:13.009Z,1004.33
2023-07-08T12:14:13.089Z,1004.33
2023-07-08T12:15:13.066Z,1004.31
2023-07-08T12:16:13.083Z,1004.30
2023-07-08T12:17:13.191Z,1004.27
2023-07-08T12:18:13.183Z,1004.25
2023-07-08T12:19:13.204Z,1004.23
2023-07-08T12:20:13.273Z,1004.20
2023-07-08T12:21:13.273Z,1004.16
2023-07-08T12:22:13.298Z,1004.18
2023-07-08T12:23:13.335Z,1004.17
2023-07-08T12:24:13.366Z,1004.19
2023-07-08T12:25:13.433Z,1004.15
2023-07-08T12:26:13.465Z,1004.15
2023-07-08T12:27:14.142Z,1004.16
2023-07-08T12:28:13.509Z,1004.19
2023-07-08T12:29:13.544Z,1004.18
2023-07-08T12:30:13.588Z,1004.14
2023-07-08T12:31:13.669Z,1004.16
2023-07-08T12:32:13.652Z,1004.13
2023-07-08T12:33:13.695Z,1004.16
2023-07-08T12:34:13.736Z,1004.14
2023-07-08T12:35:13.772Z,1004.13
2023-07-08T12:36:13.813Z,1004.17
2023-07-08T12:37:13.821Z,1004.14
2023-07-08T12:38:13.881Z,1004.14
2023-07-08T12:39:13.908Z,1004.11
2023-07-08T12:40:13.951Z,1004.13
2023-07-08T12:41:14.013Z,1004.15
2023-07-08T12:42:14.000Z,1004.08
2023-07-08T12:43:14.068Z,1004.09
2023-07-08T12:44:14.067Z,1004.14
2023-07-08T12:45:14.104Z,1004.07
2023-07-08T12:46:14.205Z,1004.10
2023-07-08T12:47:14.234Z,1004.09
2023-07-08T12:48:14.220Z,1004.12
2023-07-08T12:49:14.265Z,1004.16
2023-07-08T12:50:14.324Z,1004.07
2023-07-08T12:51:14.393Z,1004.10
2023-07-08T12:52:14.357Z,1004.13
2023-07-08T12:53:14.395Z,1004.11
2023-07-08T12:54:14.439Z,1004.15
2023-07-08T12:55:14.461Z,1004.14
2023-07-08T12:56:14.526Z,1004.13
2023-07-08T12:57:14.534Z,1004.12
2023-07-08T12:58:14.565Z,1004.14
2023-07-08T12:59:14.664Z,1004.17
2023-07-08T13:00:14.642Z,1004.24
2023-07-08T13:01:14.709Z,1004.21
2023-07-08T13:02:14.727Z,1004.16
2023-07-08T13:03:14.822Z,1004.16
2023-07-08T13:04:14.875Z,1004.17
2023-07-08T13:05:14.894Z,1004.14
2023-07-08T13:06:14.867Z,1004.11
2023-07-08T13:08:14.956Z,1004.07
2023-07-08T13:09:15.000Z,1004.09
2023-07-08T13:10:15.003Z,1004.05
2023-07-08T13:11:15.061Z,1004.11
2023-07-08T13:12:15.077Z,1004.12
2023-07-08T13:13:15.134Z,1004.13
2023-07-08T13:14:15.263Z,1004.12
2023-07-08T13:15:15.199Z,1004.09
2023-07-08T13:16:15.276Z,1004.09
2023-07-08T13:17:15.276Z,1004.08
2023-07-08T13:18:15.285Z,1004.06
2023-07-08T13:19:15.355Z,1004.04
2023-07-08T13:20:15.368Z,1004.01
2023-07-08T13:21:15.444Z,1004.02
2023-07-08T13:22:15.433Z,1004.02
2023-07-08T13:23:15.484Z,1004.01
2023-07-08T13:24:15.502Z,1004.02
2023-07-08T13:25:15.551Z,1004.02
2023-07-08T13:26:15.668Z,1003.98
2023-07-08T13:27:15.607Z,1003.98
2023-07-08T13:28:15.658Z,1003.98
2023-07-08T13:29:15.680Z,1004.01
2023-07-08T13:30:15.773Z,1003.98
2023-07-08T13:31:15.897Z,1004.00
2023-07-08T13:32:15.799Z,1004.01
2023-07-08T13:33:15.826Z,1003.98
2023-07-08T13:34:15.871Z,1004.00
2023-07-08T13:35:15.894Z,1003.99
2023-07-08T13:36:15.956Z,1003.99
2023-07-08T13:37:16.003Z,1003.98
2023-07-08T13:38:16.021Z,1003.97
2023-07-08T13:39:16.062Z,1003.93
2023-07-08T13:40:16.082Z,1004.00
2023-07-08T13:41:16.107Z,1003.94
2023-07-08T13:42:16.152Z,1003.99
2023-07-08T13:43:16.207Z,1004.00
2023-07-08T13:44:16.211Z,1004.03
2023-07-08T13:45:16.259Z,1004.02
2023-07-08T13:46:16.334Z,1003.98
2023-07-08T13:47:16.354Z,1003.97
2023-07-08T13:48:16.364Z,1003.98
2023-07-08T13:49:16.453Z,1003.94
2023-07-08T13:50:16.446Z,1003.91
2023-07-08T13:51:16.467Z,1003.93
2023-07-08T13:52:16.509Z,1003.94
2023-07-08T13:53:16.543Z,1003.91
2023-07-08T13:54:16.624Z,1003.89
2023-07-08T13:55:16.617Z,1003.89
2023-07-08T13:56:16.657Z,1003.97
2023-07-08T13:57:16.680Z,1003.91
2023-07-08T13:58:16.734Z,1003.95
2023-07-08T13:59:16.785Z,1003.91
2023-07-08T14:00:16.803Z,1003.95
2023-07-08T14:01:16.859Z,1003.94
2023-07-08T14:02:16.907Z,1003.94
2023-07-08T14:03:17.118Z,1003.98
2023-07-08T14:04:16.996Z,1003.98
2023-07-08T14:05:16.975Z,1003.94
2023-07-08T14:06:17.003Z,1003.95
2023-07-08T14:07:17.038Z,1003.96
2023-07-08T14:08:17.072Z,1004.04
2023-07-08T14:09:17.154Z,1004.01
2023-07-08T14:10:17.248Z,1004.01
2023-07-08T14:11:17.188Z,1004.03
2023-07-08T14:12:17.236Z,1004.03
2023-07-08T14:13:17.263Z,1004.07
2023-07-08T14:14:17.294Z,1004.02
2023-07-08T14:15:17.364Z,1004.09
2023-07-08T14:16:17.419Z,1004.07
2023-07-08T14:17:17.403Z,1004.05
2023-07-08T14:18:17.445Z,1004.05
2023-07-08T14:19:17.985Z,1004.04
2023-07-08T14:20:17.519Z,1004.05
2023-07-08T14:21:17.556Z,1004.05
2023-07-08T14:22:17.593Z,1004.03
2023-07-08T14:23:17.622Z,1004.00
2023-07-08T14:24:17.690Z,1004.01
2023-07-08T14:25:17.705Z,1004.04
2023-07-08T14:26:17.737Z,1004.02
2023-07-08T14:27:17.821Z,1004.01
2023-07-08T14:28:17.808Z,1004.04
2023-07-08T14:29:17.856Z,1004.03
2023-07-08T14:30:17.924Z,1004.01
2023-07-08T14:31:17.953Z,1004.02
2023-07-08T14:32:17.969Z,1003.99
2023-07-08T14:33:17.988Z,1003.99
2023-07-08T14:34:18.043Z,1003.97
2023-07-08T14:35:18.090Z,1003.99
2023-07-08T14:36:18.104Z,1003.98
2023-07-08T14:37:18.142Z,1003.97
2023-07-08T14:38:18.249Z,1003.96
2023-07-08T14:39:18.270Z,1004.00
2023-07-08T14:40:18.281Z,1004.01
2023-07-08T14:41:18.322Z,1004.01
2023-07-08T14:42:18.325Z,1004.03
2023-07-08T14:43:18.354Z,1004.03
2023-07-08T14:44:18.402Z,1004.00
2023-07-08T14:45:18.443Z,1003.93
2023-07-08T14:46:18.547Z,1003.99
2023-07-08T14:47:18.528Z,1003.93
2023-07-08T14:48:18.557Z,1003.97
2023-07-08T14:49:18.583Z,1003.91
2023-07-08T14:50:18.630Z,1003.99
2023-07-08T14:51:18.691Z,1003.94
2023-07-08T14:52:18.706Z,1003.99
2023-07-08T14:53:18.747Z,1003.90
2023-07-08T14:54:18.783Z,1003.95
2023-07-08T14:55:18.826Z,1004.01
2023-07-08T14:56:18.903Z,1004.02
2023-07-08T14:57:18.906Z,1004.01
2023-07-08T14:58:18.981Z,1003.98
2023-07-08T14:59:18.984Z,1004.01
2023-07-08T15:00:19.031Z,1003.95
2023-07-08T15:01:19.210Z,1004.03
2023-07-08T15:02:19.131Z,1003.97
2023-07-08T15:03:19.212Z,1003.99
2023-07-08T15:04:19.199Z,1004.02
2023-07-08T15:05:19.232Z,1003.98
2023-07-08T15:06:19.311Z,1003.96
2023-07-08T15:07:19.320Z,1003.94
2023-07-08T15:08:19.361Z,1003.95
2023-07-08T15:09:19.404Z,1003.96
2023-07-08T15:10:19.449Z,1003.98
2023-07-08T15:11:19.514Z,1003.92
2023-07-08T15:12:19.561Z,1004.01
2023-07-08T15:13:19.574Z,1003.99
2023-07-08T15:14:19.614Z,1003.94
2023-07-08T15:15:19.659Z,1003.96
2023-07-08T15:16:19.710Z,1003.95
2023-07-08T15:17:19.840Z,1003.94
2023-07-08T15:18:19.927Z,1003.96
2023-07-08T15:19:19.900Z,1003.92
2023-07-08T15:20:19.865Z,1003.99
2023-07-08T15:21:19.890Z,1003.95
2023-07-08T15:22:19.966Z,1003.97
2023-07-08T15:23:19.986Z,1003.96
2023-07-08T15:24:20.009Z,1003.93
2023-07-08T15:25:20.059Z,1003.95
2023-07-08T15:26:20.088Z,1003.94
2023-07-08T15:27:20.154Z,1003.92
2023-07-08T15:28:20.180Z,1003.91
2023-07-08T15:29:20.310Z,1003.96
2023-07-08T15:30:20.297Z,1003.93
2023-07-08T15:31:20.349Z,1003.96
2023-07-08T15:32:39.091Z,1003.94
2023-07-08T15:33:20.414Z,1003.93
2023-07-08T15:34:20.442Z,1003.96
2023-07-08T15:35:20.430Z,1003.94
2023-07-08T15:36:20.483Z,1003.93
2023-07-08T15:37:20.525Z,1003.96
2023-07-08T15:38:20.575Z,1003.95
2023-07-08T15:39:20.595Z,1003.97
2023-07-08T15:40:20.633Z,1003.94
2023-07-08T15:41:20.655Z,1003.92
2023-07-08T15:42:20.698Z,1003.93
2023-07-08T15:43:20.760Z,1003.92
2023-07-08T15:44:20.781Z,1003.92
2023-07-08T15:45:20.810Z,1003.98
2023-07-08T15:46:20.914Z,1003.94
2023-07-08T15:47:20.964Z,1003.95
2023-07-08T15:48:20.941Z,1003.93
2023-07-08T15:49:20.987Z,1003.90
2023-07-08T15:50:21.020Z,1003.93
2023-07-08T15:51:21.076Z,1003.97
2023-07-08T15:52:21.076Z,1003.96
2023-07-08T15:53:21.118Z,1003.98
2023-07-08T15:54:21.157Z,1003.98
2023-07-08T15:55:21.234Z,1003.98
2023-07-08T15:56:21.250Z,1003.95
2023-07-08T15:57:21.262Z,1003.91
2023-07-08T15:58:21.299Z,1003.94
2023-07-08T15:59:21.333Z,1003.93
2023-07-08T16:00:21.405Z,1003.93
2023-07-08T16:01:21.519Z,1003.96
2023-07-08T16:02:21.804Z,1003.97
2023-07-08T16:03:21.585Z,1003.98
2023-07-08T16:04:21.535Z,1003.96
2023-07-08T16:05:21.671Z,1003.93
2023-07-08T16:06:21.596Z,1003.93
2023-07-08T16:07:21.662Z,1003.91
2023-07-08T16:08:22.286Z,1003.95
2023-07-08T16:09:21.715Z,1003.95
2023-07-08T16:10:21.738Z,1003.95
2023-07-08T16:11:21.812Z,1003.96
2023-07-08T16:12:21.813Z,1003.95
2023-07-08T16:13:21.866Z,1003.96
2023-07-08T16:14:22.941Z,1003.92
2023-07-08T16:15:21.925Z,1003.92
2023-07-08T16:16:21.980Z,1003.89
2023-07-08T16:17:22.013Z,1003.91
2023-07-08T16:18:22.032Z,1003.92
2023-07-08T16:19:22.098Z,1003.92
2023-07-08T16:20:22.103Z,1003.88
2023-07-08T16:21:22.139Z,1003.91
2023-07-08T16:22:22.207Z,1003.92
2023-07-08T16:23:22.250Z,1003.89
2023-07-08T16:24:22.273Z,1003.85
2023-07-08T16:25:22.284Z,1003.86
2023-07-08T16:26:22.317Z,1003.88
2023-07-08T16:27:22.384Z,1003.92
2023-07-08T16:28:22.414Z,1003.86
2023-07-08T16:29:22.450Z,1003.88
2023-07-08T16:30:22.493Z,1003.89
2023-07-08T16:31:22.563Z,1003.88
2023-07-08T16:32:22.563Z,1003.85
2023-07-08T16:33:22.592Z,1003.85
2023-07-08T16:34:22.635Z,1003.88
2023-07-08T16:35:22.641Z,1003.85
2023-07-08T16:36:22.703Z,1003.84
2023-07-08T16:37:22.713Z,1003.84
2023-07-08T16:38:22.775Z,1003.85
2023-07-08T16:39:22.782Z,1003.82
2023-07-08T16:40:22.820Z,1003.81
2023-07-08T16:41:22.850Z,1003.82
2023-07-08T16:42:22.893Z,1003.81
2023-07-08T16:43:22.933Z,1003.82
2023-07-08T16:44:22.988Z,1003.81
2023-07-08T16:45:23.000Z,1003.79
2023-07-08T16:46:23.085Z,1003.77
2023-07-08T16:47:23.100Z,1003.76
2023-07-08T16:48:23.113Z,1003.73
2023-07-08T16:49:23.160Z,1003.72
2023-07-08T16:50:23.173Z,1003.73
2023-07-08T16:51:23.220Z,1003.72
2023-07-08T16:52:23.241Z,1003.79
2023-07-08T16:53:23.278Z,1003.75
2023-07-08T16:54:23.355Z,1003.80
2023-07-08T16:55:23.356Z,1003.75
2023-07-08T16:56:23.400Z,1003.77
2023-07-08T16:57:23.435Z,1003.76
2023-07-08T16:58:23.674Z,1003.76
2023-07-08T16:59:23.533Z,1003.77
2023-07-08T17:00:23.538Z,1003.77
2023-07-08T17:01:23.767Z,1003.74
2023-07-08T17:02:23.633Z,1003.76
2023-07-08T17:03:23.746Z,1003.74
2023-07-08T17:04:23.696Z,1003.75
2023-07-08T17:05:23.701Z,1003.73
2023-07-08T17:06:23.741Z,1003.71
2023-07-08T17:07:23.782Z,1003.74
2023-07-08T17:08:26.047Z,1003.76
2023-07-08T17:09:23.898Z,1003.71
2023-07-08T17:10:23.921Z,1003.78
2023-07-08T17:11:23.931Z,1003.75
2023-07-08T17:12:23.956Z,1003.82
2023-07-08T17:13:24.008Z,1003.80
2023-07-08T17:14:24.037Z,1003.87
2023-07-08T17:15:24.103Z,1003.83
2023-07-08T17:16:24.141Z,1003.83
2023-07-08T17:17:24.150Z,1003.81
2023-07-08T17:18:24.203Z,1003.79
2023-07-08T17:19:24.208Z,1003.77
2023-07-08T17:20:24.308Z,1003.78
2023-07-08T17:21:24.512Z,1003.76
2023-07-08T17:22:24.411Z,1003.77
2023-07-08T17:23:24.353Z,1003.76
2023-07-08T17:24:24.402Z,1003.76
2023-07-08T17:25:24.472Z,1003.75
2023-07-08T17:26:24.451Z,1003.71
2023-07-08T17:27:24.483Z,1003.71
2023-07-08T17:28:24.516Z,1003.73
2023-07-08T17:29:24.579Z,1003.70
2023-07-08T17:30:24.624Z,1003.70
2023-07-08T17:31:37.844Z,1003.71
2023-07-08T17:32:24.751Z,1003.68
2023-07-08T17:33:24.691Z,1003.68
2023-07-08T17:34:24.735Z,1003.68
2023-07-08T17:35:24.941Z,1003.71
2023-07-08T17:36:24.804Z,1003.66
2023-07-08T17:37:24.835Z,1003.68
2023-07-08T17:38:24.874Z,1003.66
2023-07-08T17:39:24.912Z,1003.65
2023-07-08T17:40:24.988Z,1003.63
2023-07-08T17:41:25.073Z,1003.65
2023-07-08T17:42:25.009Z,1003.67
2023-07-08T17:43:25.766Z,1003.63
2023-07-08T17:44:25.086Z,1003.63
2023-07-08T17:45:25.115Z,1003.57
2023-07-08T17:46:25.229Z,1003.64
2023-07-08T17:47:25.222Z,1003.63
2023-07-08T17:48:26.032Z,1003.66
2023-07-08T17:49:25.251Z,1003.64
2023-07-08T17:50:25.299Z,1003.63
2023-07-08T17:51:25.348Z,1003.65
2023-07-08T17:52:25.357Z,1003.63
2023-07-08T17:53:25.394Z,1003.60
2023-07-08T17:54:25.428Z,1003.62
2023-07-08T17:55:25.465Z,1003.61
2023-07-08T17:56:25.514Z,1003.59
2023-07-08T17:57:25.559Z,1003.63
2023-07-08T17:58:25.601Z,1003.58
2023-07-08T17:59:25.618Z,1003.62
2023-07-08T18:00:25.660Z,1003.63
2023-07-08T18:01:25.732Z,1003.57
2023-07-08T18:02:25.721Z,1003.59
2023-07-08T18:03:25.799Z,1003.58
2023-07-08T18:04:25.808Z,1003.58
2023-07-08T18:05:25.813Z,1003.63
2023-07-08T18:06:25.849Z,1003.60
2023-07-08T18:07:25.885Z,1003.67
2023-07-08T18:08:25.968Z,1003.62
2023-07-08T18:09:25.950Z,1003.61
2023-07-08T18:10:25.993Z,1003.64
2023-07-08T18:11:26.020Z,1003.66
2023-07-08T18:12:26.057Z,1003.63
2023-07-08T18:13:26.141Z,1003.63
2023-07-08T18:14:26.153Z,1003.59
2023-07-08T18:15:26.161Z,1003.61
2023-07-08T18:16:26.234Z,1003.62
2023-07-08T18:17:26.236Z,1003.62
2023-07-08T18:18:26.266Z,1003.59
2023-07-08T18:19:26.330Z,1003.62
2023-07-08T18:20:26.338Z,1003.61
2023-07-08T18:21:26.379Z,1003.61
2023-07-08T18:22:26.411Z,1003.59
2023-07-08T18:23:26.439Z,1003.61
2023-07-08T18:24:26.501Z,1003.59
2023-07-08T18:25:26.513Z,1003.59
2023-07-08T18:26:26.545Z,1003.62
2023-07-08T18:27:26.578Z,1003.62
2023-07-08T18:28:26.639Z,1003.66
2023-07-08T18:29:26.675Z,1003.65
2023-07-08T18:30:26.681Z,1003.64
2023-07-08T18:31:26.768Z,1003.63
2023-07-08T18:32:26.751Z,1003.66
2023-07-08T18:33:26.787Z,1003.65
2023-07-08T18:34:26.869Z,1003.67
2023-07-08T18:35:26.855Z,1003.64
2023-07-08T18:36:26.899Z,1003.64
2023-07-08T18:37:26.935Z,1003.65
2023-07-08T18:38:26.956Z,1003.67
2023-07-08T18:39:27.020Z,1003.70
2023-07-08T18:40:27.051Z,1003.75
2023-07-08T18:41:27.059Z,1003.68
2023-07-08T18:42:27.093Z,1003.69
2023-07-08T18:43:27.127Z,1003.72
2023-07-08T18:44:27.210Z,1003.72
2023-07-08T18:45:27.213Z,1003.73
2023-07-08T18:46:27.236Z,1003.73
2023-07-08T18:47:27.298Z,1003.77
2023-07-08T18:48:27.300Z,1003.81
2023-07-08T18:49:27.373Z,1003.79
2023-07-08T18:50:27.413Z,1003.81
2023-07-08T18:51:27.414Z,1003.78
2023-07-08T18:52:27.431Z,1003.78
2023-07-08T18:53:27.465Z,1003.79
2023-07-08T18:54:27.510Z,1003.77
2023-07-08T18:55:27.535Z,1003.79
2023-07-08T18:56:27.574Z,1003.75
2023-07-08T18:57:27.601Z,1003.78